Time;durP1;ratioP1;P1;durP2;ratioP2;P2;SDS_P1;SDS_P2;PMS_P1;PMS_P2;Temp;Humidity;BMP_temperature;BMP_pressure;BME280_temperature;BME280_humidity;BME280_pressure;Samples;Min_cycle;Max_cycle;Signal;HPM_P1;HPM_P2
2023/05/26 00:00:34;;;;;;;24.45;4.97;;;;;;;9.14;67.66;101625.41;10062339;29;20508;-81
2023/05/26 00:05:40;;;;;;;35.53;6.18;;;;;;;8.98;68.15;101626.25;10064545;29;20049;-81
2023/05/26 00:10:43;;;;;;;40.55;5.57;;;;;;;8.92;68.49;101636.44;10054722;29;20038;-79
2023/05/26 00:15:47;;;;;;;30.58;5.15;;;;;;;8.85;68.56;101646.63;10073051;29;20034;-81
2023/05/26 00:20:51;;;;;;;32.95;5.20;;;;;;;8.87;68.67;101651.91;10059862;29;20049;-82
2023/05/26 00:25:54;;;;;;;24.95;5.38;;;;;;;8.91;68.56;101648.09;10061172;29;20063;-80
2023/05/26 00:30:58;;;;;;;24.23;5.43;;;;;;;8.90;68.45;101649.06;10067214;29;20057;-79
2023/05/26 00:36:01;;;;;;;23.67;4.82;;;;;;;8.72;69.00;101650.88;10063467;29;20045;-80
2023/05/26 00:41:04;;;;;;;33.35;6.35;;;;;;;8.64;69.22;101645.97;10041215;29;20044;-79
2023/05/26 00:46:09;;;;;;;33.65;7.25;;;;;;;8.58;69.25;101652.50;10057124;29;20041;-80
2023/05/26 00:51:12;;;;;;;28.23;4.88;;;;;;;8.47;69.65;101649.50;10039382;29;20045;-79
2023/05/26 00:56:16;;;;;;;30.70;5.40;;;;;;;8.30;70.11;101654.84;10047862;29;20057;-79
2023/05/26 01:01:22;;;;;;;40.28;6.65;;;;;;;8.21;70.53;101653.50;10053094;29;20440;-78
2023/05/26 01:06:25;;;;;;;31.83;5.70;;;;;;;8.22;70.21;101655.22;10043361;29;20054;-79
2023/05/26 01:11:33;;;;;;;30.15;6.18;;;;;;;7.84;72.21;101657.16;10057361;29;20045;-79
2023/05/26 01:16:43;;;;;;;28.40;6.00;;;;;;;8.00;71.98;101663.47;10061091;29;20087;-80
2023/05/26 01:21:50;;;;;;;28.13;5.25;;;;;;;8.00;71.84;101662.63;10058980;29;20128;-79
2023/05/26 01:27:04;;;;;;;34.47;5.78;;;;;;;7.84;71.95;101665.19;10066540;29;20067;-80
2023/05/26 01:32:11;;;;;;;29.05;5.65;;;;;;;7.69;72.28;101664.13;10057528;29;20133;-79
2023/05/26 01:37:14;;;;;;;37.40;5.60;;;;;;;7.76;72.32;101662.88;10058016;29;20069;-79
2023/05/26 01:42:23;;;;;;;42.55;8.02;;;;;;;7.69;72.60;101667.66;10061029;29;20056;-79
2023/05/26 01:47:37;;;;;;;37.40;5.38;;;;;;;7.76;72.37;101654.84;10062813;29;20046;-78
2023/05/26 01:52:44;;;;;;;28.85;5.78;;;;;;;7.83;71.88;101655.44;10070342;29;20061;-80
2023/05/26 01:57:49;;;;;;;34.58;5.55;;;;;;;7.86;71.81;101655.28;10076831;29;20050;-81
2023/05/26 02:02:54;;;;;;;30.08;5.88;;;;;;;7.79;72.23;101659.19;10098762;29;20049;-81
2023/05/26 02:07:57;;;;;;;33.67;6.55;;;;;;;7.84;72.26;101658.00;10082907;29;20050;-80
2023/05/26 02:13:00;;;;;;;34.47;6.65;;;;;;;7.75;72.55;101660.28;10046274;29;20053;-79
2023/05/26 02:18:05;;;;;;;36.17;7.05;;;;;;;7.69;72.37;101658.78;10048744;29;20049;-79
2023/05/26 02:23:08;;;;;;;40.83;7.25;;;;;;;7.79;72.40;101665.44;10049671;29;20101;-78
2023/05/26 02:28:12;;;;;;;37.47;6.43;;;;;;;7.84;72.06;101671.38;10062826;29;20053;-78
2023/05/26 02:33:16;;;;;;;36.80;6.57;;;;;;;7.71;72.35;101671.16;10057016;29;20046;-79
2023/05/26 02:38:19;;;;;;;31.45;5.57;;;;;;;7.81;72.16;101678.72;10053623;29;20078;-79
2023/05/26 02:43:24;;;;;;;30.25;5.32;;;;;;;7.78;71.81;101676.19;10042766;29;20056;-79
2023/05/26 02:48:28;;;;;;;44.72;6.57;;;;;;;7.80;71.96;101674.31;10055976;29;20466;-79
2023/05/26 02:53:33;;;;;;;33.75;7.50;;;;;;;7.70;72.07;101690.78;10051263;29;20106;-78
2023/05/26 02:58:36;;;;;;;25.63;6.57;;;;;;;7.67;72.43;101682.91;10053808;29;20102;-77
2023/05/26 03:03:41;;;;;;;43.65;7.63;;;;;;;7.48;72.71;101682.94;10053862;29;20160;-78
2023/05/26 03:08:44;;;;;;;38.95;5.38;;;;;;;7.62;72.53;101687.63;10049993;29;20048;-78
2023/05/26 03:13:47;;;;;;;49.45;7.45;;;;;;;7.68;72.45;101687.34;10059410;29;20105;-79
2023/05/26 03:18:52;;;;;;;34.78;6.47;;;;;;;7.54;72.65;101678.22;10042127;29;20401;-78
2023/05/26 03:23:55;;;;;;;32.25;6.88;;;;;;;7.54;72.61;101679.09;10043315;29;20054;-78
2023/05/26 03:28:58;;;;;;;29.00;6.72;;;;;;;7.57;72.70;101688.78;10066788;29;20076;-81
2023/05/26 03:34:02;;;;;;;28.17;6.32;;;;;;;7.60;72.50;101699.34;10060361;29;20049;-78
2023/05/26 03:39:06;;;;;;;38.85;6.53;;;;;;;7.74;72.01;101696.88;10064128;29;20049;-80
2023/05/26 03:44:09;;;;;;;35.53;7.45;;;;;;;7.75;71.96;101692.38;10062280;29;20053;-79
2023/05/26 03:49:14;;;;;;;30.33;5.68;;;;;;;7.82;71.73;101691.16;10051436;29;20141;-80
2023/05/26 03:54:17;;;;;;;30.45;6.22;;;;;;;7.82;71.47;101699.19;10051085;29;20123;-80
2023/05/26 03:59:20;;;;;;;28.92;5.60;;;;;;;7.76;71.41;101705.66;10072497;29;20041;-80
2023/05/26 04:04:24;;;;;;;33.03;6.65;;;;;;;7.83;71.17;101711.59;10082042;29;20021;-80
2023/05/26 04:09:27;;;;;;;33.90;6.93;;;;;;;7.81;71.10;101711.66;10083656;29;20054;-80
2023/05/26 04:14:30;;;;;;;33.97;7.13;;;;;;;7.88;71.24;101714.94;10073748;29;20052;-81
2023/05/26 04:19:35;;;;;;;28.30;6.15;;;;;;;7.93;71.13;101719.13;10070555;29;20038;-80
2023/05/26 04:24:38;;;;;;;37.55;6.22;;;;;;;7.97;70.81;101719.81;10080595;29;20045;-79
2023/05/26 04:29:41;;;;;;;33.85;6.75;;;;;;;8.02;70.79;101719.63;10070183;29;20045;-80
2023/05/26 04:35:02;;;;;;;38.13;7.00;;;;;;;8.12;70.44;101715.53;10069908;29;20058;-79
2023/05/26 04:40:11;;;;;;;34.42;6.22;;;;;;;8.23;70.19;101728.38;10068434;29;20145;-80
2023/05/26 04:45:14;;;;;;;39.70;6.85;;;;;;;8.32;69.88;101727.94;10067358;29;20057;-78
2023/05/26 04:50:22;;;;;;;38.00;7.50;;;;;;;8.38;69.61;101746.34;10068069;29;20547;-79
2023/05/26 04:55:26;;;;;;;40.00;6.65;;;;;;;8.48;69.38;101736.97;10075857;29;20045;-80
2023/05/26 05:00:31;;;;;;;41.60;7.13;;;;;;;8.45;68.98;101734.41;10067423;29;20045;-80
2023/05/26 05:05:52;;;;;;;29.88;5.93;;;;;;;8.55;68.57;101743.72;10073049;29;20198;-80
2023/05/26 05:10:56;;;;;;;32.53;6.57;;;;;;;8.66;68.34;101748.53;10064190;29;20079;-80
2023/05/26 05:16:01;;;;;;;42.90;6.30;;;;;;;8.77;67.87;101746.16;10074468;29;20054;-80
2023/05/26 05:21:05;;;;;;;34.60;5.75;;;;;;;8.81;67.47;101752.25;10068782;29;20057;-80
2023/05/26 05:26:08;;;;;;;30.70;6.38;;;;;;;8.96;67.02;101764.81;10062187;29;20059;-79
2023/05/26 05:31:13;;;;;;;28.40;5.75;;;;;;;9.13;66.51;101760.38;10068487;29;20545;-79
2023/05/26 05:36:17;;;;;;;26.42;5.65;;;;;;;9.23;65.17;101756.28;10047478;29;20057;-79
2023/05/26 05:41:20;;;;;;;25.55;6.05;;;;;;;9.27;64.96;101761.41;10052111;29;20049;-79
2023/05/26 05:46:23;;;;;;;33.30;6.40;;;;;;;9.37;63.84;101766.25;10047261;29;20053;-78
2023/05/26 05:51:35;;;;;;;27.27;5.20;;;;;;;9.36;63.15;101768.06;10052482;29;20058;-78
2023/05/26 05:56:38;;;;;;;34.47;6.50;;;;;;;9.53;62.73;101780.56;10055233;29;20071;-79
2023/05/26 06:01:43;;;;;;;23.98;6.03;;;;;;;9.55;61.73;101772.44;10067456;29;20084;-79
2023/05/26 06:06:48;;;;;;;32.20;6.32;;;;;;;9.64;61.53;101794.25;10067510;29;20054;-80
2023/05/26 06:11:51;;;;;;;32.35;5.93;;;;;;;9.80;61.56;101788.91;10052253;29;20109;-80
2023/05/26 06:16:54;;;;;;;29.52;5.90;;;;;;;10.05;60.99;101793.81;10062620;29;20092;-79
2023/05/26 06:22:02;;;;;;;24.90;5.30;;;;;;;10.39;59.74;101790.06;10071969;29;20041;-79
2023/05/26 06:27:05;;;;;;;24.45;5.72;;;;;;;10.71;58.23;101795.34;10075770;29;20121;-80
2023/05/26 06:32:09;;;;;;;35.25;7.22;;;;;;;10.87;57.75;101791.75;10057542;29;20075;-80
2023/05/26 06:37:14;;;;;;;31.15;6.00;;;;;;;10.89;56.93;101803.28;10066039;29;20068;-79
2023/05/26 06:42:16;;;;;;;32.28;5.75;;;;;;;11.21;57.23;101802.22;10070972;29;20105;-79
2023/05/26 06:47:23;;;;;;;32.50;5.85;;;;;;;11.41;56.39;101803.69;10063085;29;20059;-78
2023/05/26 06:52:42;;;;;;;28.20;5.88;;;;;;;11.66;55.47;101813.78;10048707;29;20053;-78
2023/05/26 06:57:45;;;;;;;27.48;5.32;;;;;;;11.77;54.89;101806.88;10055894;29;20049;-78
2023/05/26 07:02:49;;;;;;;21.83;4.72;;;;;;;11.88;54.73;101810.59;10050555;29;20072;-78
2023/05/26 07:08:00;;;;;;;30.45;6.80;;;;;;;11.98;55.10;101813.53;10046270;29;20061;-79
2023/05/26 07:13:04;;;;;;;26.60;6.22;;;;;;;12.20;54.80;101812.16;10051820;29;20057;-78
2023/05/26 07:18:10;;;;;;;25.30;5.38;;;;;;;12.65;54.22;101816.38;10044027;29;20117;-79
2023/05/26 07:23:15;;;;;;;27.67;6.05;;;;;;;13.04;53.21;101822.72;10057925;29;20057;-80
2023/05/26 07:28:18;;;;;;;28.58;5.90;;;;;;;13.65;52.35;101829.22;10044265;29;20037;-78
2023/05/26 07:33:21;;;;;;;28.70;6.28;;;;;;;14.25;49.88;101829.44;10050933;29;20045;-78
2023/05/26 07:38:25;;;;;;;33.78;6.82;;;;;;;14.72;48.72;101825.91;10042453;29;20420;-79
2023/05/26 07:43:28;;;;;;;30.55;5.95;;;;;;;15.09;48.04;101814.13;10044920;29;20038;-78
2023/05/26 07:48:31;;;;;;;29.33;6.43;;;;;;;15.75;47.55;101815.22;10045222;29;20083;-77
2023/05/26 07:53:36;;;;;;;25.52;6.65;;;;;;;15.20;47.04;101819.56;10048982;29;20077;-79
2023/05/26 07:58:40;;;;;;;29.05;6.82;;;;;;;15.60;47.02;101817.28;10056652;29;20034;-79
2023/05/26 08:03:43;;;;;;;33.80;7.13;;;;;;;15.88;46.93;101812.38;10042502;29;20038;-78
2023/05/26 08:08:48;;;;;;;29.83;6.10;;;;;;;16.21;46.08;101807.88;10036271;29;20047;-79
2023/05/26 08:13:50;;;;;;;34.55;8.07;;;;;;;16.49;45.74;101806.47;10044837;29;20050;-78
2023/05/26 08:18:54;;;;;;;40.47;6.68;;;;;;;15.78;46.70;101806.81;10052856;29;20073;-78
2023/05/26 08:23:58;;;;;;;32.42;6.63;;;;;;;16.19;46.09;101812.56;10058204;29;20054;-78
2023/05/26 08:29:01;;;;;;;26.60;5.95;;;;;;;16.28;45.84;101806.41;10054013;29;20049;-78
2023/05/26 08:34:06;;;;;;;24.10;5.40;;;;;;;16.40;44.84;101805.41;10058535;29;20057;-79
2023/05/26 08:39:10;;;;;;;26.92;6.30;;;;;;;16.44;45.21;101808.72;10041636;29;20053;-78
2023/05/26 08:44:16;;;;;;;27.77;5.97;;;;;;;16.45;44.58;101803.13;10044384;29;20049;-79
2023/05/26 08:49:20;;;;;;;24.50;5.65;;;;;;;16.24;45.24;101816.63;10049455;29;20050;-78
2023/05/26 08:54:24;;;;;;;28.10;6.22;;;;;;;15.70;45.70;101804.72;10046184;29;20062;-78
2023/05/26 08:59:29;;;;;;;28.17;5.05;;;;;;;16.47;44.97;101808.47;10051416;29;20431;-78
2023/05/26 09:04:32;;;;;;;27.25;5.63;;;;;;;16.99;44.04;101810.31;10048080;29;20050;-79
2023/05/26 09:09:36;;;;;;;21.27;4.57;;;;;;;17.28;43.79;101806.09;10060386;29;20506;-79
2023/05/26 09:14:40;;;;;;;20.08;6.25;;;;;;;17.76;42.79;101802.75;10072800;29;20267;-80
2023/05/26 09:19:44;;;;;;;28.30;5.30;;;;;;;17.47;42.32;101801.66;10034113;29;20083;-78
2023/05/26 09:24:49;;;;;;;18.15;5.32;;;;;;;17.41;43.17;101799.44;10056093;29;20056;-79
2023/05/26 09:29:54;;;;;;;25.45;6.60;;;;;;;17.85;42.04;101804.66;10053645;29;20068;-79
2023/05/26 09:34:59;;;;;;;18.08;5.60;;;;;;;18.22;41.60;101817.69;10051091;29;20124;-79
2023/05/26 09:40:14;;;;;;;26.73;5.97;;;;;;;18.37;40.53;101810.81;10053618;29;20050;-79
2023/05/26 09:45:17;;;;;;;30.30;6.45;;;;;;;18.38;41.04;101808.97;10049592;29;20078;-78
2023/05/26 09:50:21;;;;;;;23.63;5.43;;;;;;;18.97;40.12;101810.72;10051955;29;20053;-79
2023/05/26 09:55:25;;;;;;;18.90;5.47;;;;;;;19.15;39.84;101802.69;10044976;29;20056;-78
2023/05/26 10:00:28;;;;;;;20.85;5.25;;;;;;;19.21;39.56;101797.50;10052708;29;20046;-78
2023/05/26 10:05:33;;;;;;;23.85;5.00;;;;;;;19.76;39.11;101791.31;10043711;29;20052;-79
2023/05/26 10:10:39;;;;;;;20.48;4.85;;;;;;;19.87;37.42;101790.25;10051016;29;20065;-78
2023/05/26 10:15:41;;;;;;;16.95;4.70;;;;;;;19.68;38.16;101789.31;10067102;29;20409;-79
2023/05/26 10:20:47;;;;;;;16.92;4.07;;;;;;;20.27;37.27;101789.03;10055274;29;20044;-79
2023/05/26 10:25:56;;;;;;;18.15;5.15;;;;;;;19.60;37.51;101788.38;10054823;29;20102;-79
2023/05/26 10:31:01;;;;;;;18.80;4.72;;;;;;;19.81;36.68;101789.00;10038929;29;20502;-79
2023/05/26 10:36:07;;;;;;;12.20;4.55;;;;;;;19.86;36.38;101777.63;10062569;29;20076;-79
2023/05/26 10:41:14;;;;;;;17.90;4.13;;;;;;;20.10;35.10;101777.94;10064042;29;20048;-80
2023/05/26 10:46:17;;;;;;;16.65;4.78;;;;;;;20.53;35.72;101776.31;10053902;29;20137;-79
2023/05/26 10:51:26;;;;;;;17.33;4.45;;;;;;;21.04;35.51;101775.78;10045213;29;20057;-78
2023/05/26 10:56:42;;;;;;;16.13;4.10;;;;;;;21.14;35.20;101769.16;10041989;29;20124;-77
2023/05/26 11:01:51;;;;;;;13.05;3.92;;;;;;;21.36;33.20;101770.50;10046458;29;20061;-78
2023/05/26 11:07:00;;;;;;;12.40;3.55;;;;;;;21.43;33.66;101766.09;10049334;29;20050;-78
2023/05/26 11:12:06;;;;;;;14.27;3.92;;;;;;;21.17;34.37;101776.19;10048531;29;20574;-79
2023/05/26 11:17:13;;;;;;;17.38;4.30;;;;;;;21.22;34.59;101773.84;10040065;29;20066;-79
2023/05/26 11:22:17;;;;;;;16.65;4.55;;;;;;;21.69;33.97;101770.66;10041165;29;20451;-80
2023/05/26 11:27:25;;;;;;;16.33;4.53;;;;;;;21.92;30.70;101770.13;10058993;29;20045;-80
2023/05/26 11:32:28;;;;;;;13.88;4.18;;;;;;;22.44;31.77;101770.78;10045920;29;20045;-78
2023/05/26 11:37:31;;;;;;;11.65;3.90;;;;;;;22.76;31.18;101759.00;10049805;29;20148;-79
2023/05/26 11:42:35;;;;;;;14.88;3.45;;;;;;;23.28;30.72;101756.88;10048950;29;20050;-79
2023/05/26 11:47:39;;;;;;;14.32;4.50;;;;;;;23.37;31.64;101762.19;10061610;29;20052;-79
2023/05/26 11:52:42;;;;;;;18.05;4.88;;;;;;;23.19;32.60;101758.78;10065257;29;20113;-79
2023/05/26 11:57:47;;;;;;;14.73;4.63;;;;;;;23.58;32.27;101736.88;10062586;29;20065;-78
2023/05/26 12:02:51;;;;;;;16.77;3.83;;;;;;;23.46;31.76;101759.41;10055391;29;20076;-79
2023/05/26 12:08:04;;;;;;;17.42;4.85;;;;;;;23.53;31.42;101747.56;10048372;29;20054;-79
2023/05/26 12:13:09;;;;;;;12.52;4.57;;;;;;;23.39;32.38;101742.78;10056931;29;20057;-79
2023/05/26 12:18:12;;;;;;;21.15;5.13;;;;;;;23.60;32.80;101751.28;10054818;29;20065;-79
2023/05/26 12:23:24;;;;;;;17.95;5.15;;;;;;;23.45;32.33;101742.09;10047371;29;20083;-79
2023/05/26 12:28:28;;;;;;;21.83;5.85;;;;;;;23.60;32.32;101736.72;10057247;29;20064;-80
2023/05/26 12:33:31;;;;;;;18.40;5.00;;;;;;;24.16;32.38;101742.94;10064634;29;20496;-80
2023/05/26 12:38:43;;;;;;;18.98;6.47;;;;;;;24.15;32.11;101741.25;10066558;29;20048;-79
2023/05/26 12:43:47;;;;;;;19.45;6.78;;;;;;;24.74;31.13;101733.28;10048661;29;20048;-79
2023/05/26 12:48:50;;;;;;;14.88;7.05;;;;;;;24.63;30.75;101730.97;10045633;29;20049;-78
2023/05/26 12:53:54;;;;;;;19.90;5.55;;;;;;;24.52;30.47;101735.03;10038764;29;20063;-79
2023/05/26 12:58:58;;;;;;;16.40;5.93;;;;;;;24.23;31.08;101724.72;10039801;29;20068;-79
2023/05/26 13:04:17;;;;;;;14.73;6.20;;;;;;;24.18;31.37;101735.41;10049113;29;20453;-79
2023/05/26 13:09:21;;;;;;;16.20;5.40;;;;;;;24.20;30.13;101725.09;10060965;29;20058;-79
2023/05/26 13:14:26;;;;;;;18.35;5.65;;;;;;;24.41;31.01;101709.84;10067616;29;20051;-79
2023/05/26 13:19:29;;;;;;;12.38;4.65;;;;;;;24.35;30.67;101716.06;10065080;29;20105;-79
2023/05/26 13:24:32;;;;;;;16.67;5.22;;;;;;;24.46;30.98;101718.41;10071532;29;20097;-78
2023/05/26 13:29:36;;;;;;;15.55;6.13;;;;;;;24.73;31.00;101723.31;10068962;29;20574;-79
2023/05/26 13:34:39;;;;;;;16.70;5.93;;;;;;;24.76;30.42;101708.34;10066398;29;20517;-80
2023/05/26 13:39:43;;;;;;;24.98;6.68;;;;;;;24.85;30.98;101704.50;10069949;29;20050;-79
2023/05/26 13:44:47;;;;;;;13.05;5.05;;;;;;;24.89;30.72;101699.47;10066893;29;20057;-78
2023/05/26 13:49:50;;;;;;;15.35;5.72;;;;;;;24.91;31.69;101695.50;10056330;29;20114;-77
2023/05/26 13:54:52;;;;;;;17.98;6.03;;;;;;;25.04;31.43;101689.41;10053018;29;20050;-79
2023/05/26 13:59:57;;;;;;;15.18;5.47;;;;;;;24.70;32.17;101681.63;10067211;29;20441;-79
2023/05/26 14:05:00;;;;;;;17.98;5.50;;;;;;;24.83;30.74;101695.59;10067484;29;20658;-78
2023/05/26 14:10:03;;;;;;;19.92;7.13;;;;;;;24.73;31.17;101684.00;10066930;29;20037;-79
2023/05/26 14:15:08;;;;;;;15.23;4.95;;;;;;;24.64;30.68;101680.47;10062472;29;20061;-79
2023/05/26 14:20:11;;;;;;;10.38;4.07;;;;;;;24.78;31.08;101683.44;10082313;29;20080;-79
2023/05/26 14:25:34;;;;;;;15.55;4.65;;;;;;;25.00;30.90;101678.91;10065880;29;20520;-80
2023/05/26 14:30:38;;;;;;;14.63;3.85;;;;;;;24.84;29.79;101679.94;10074367;29;20128;-78
2023/05/26 14:35:42;;;;;;;10.75;4.18;;;;;;;23.85;30.73;101661.50;10071503;29;20516;-79
2023/05/26 14:40:45;;;;;;;14.07;4.07;;;;;;;24.53;32.01;101670.78;10069801;29;20055;-78
2023/05/26 14:45:49;;;;;;;13.20;4.25;;;;;;;24.85;31.01;101671.53;10066265;29;20105;-79
2023/05/26 14:50:52;;;;;;;17.45;4.72;;;;;;;24.85;30.80;101673.38;10057779;29;20050;-79
2023/05/26 14:55:55;;;;;;;18.13;4.90;;;;;;;24.69;30.33;101664.28;10069572;29;20046;-78
2023/05/26 15:00:59;;;;;;;14.77;5.32;;;;;;;24.17;30.90;101669.72;10053064;29;20049;-78
2023/05/26 15:06:04;;;;;;;14.40;4.82;;;;;;;24.11;31.75;101663.06;10052483;29;20060;-78
2023/05/26 15:11:10;;;;;;;16.50;4.50;;;;;;;24.60;31.25;101659.06;10068957;29;20033;-79
2023/05/26 15:16:15;;;;;;;17.77;4.50;;;;;;;24.41;31.08;101663.19;10084289;29;20049;-80
2023/05/26 15:21:18;;;;;;;13.30;4.55;;;;;;;24.61;30.90;101647.91;10071081;29;20060;-79
2023/05/26 15:26:21;;;;;;;17.25;5.68;;;;;;;24.12;31.61;101653.78;10060120;29;20041;-79
2023/05/26 15:31:25;;;;;;;16.83;4.70;;;;;;;24.15;32.12;101661.66;10054561;29;20039;-80
2023/05/26 15:36:28;;;;;;;20.70;4.53;;;;;;;24.52;31.79;101658.13;10057990;29;20069;-80
2023/05/26 15:41:32;;;;;;;15.07;4.97;;;;;;;23.84;32.15;101653.47;10061004;29;20603;-79
2023/05/26 15:46:36;;;;;;;14.73;3.88;;;;;;;22.83;32.63;101659.69;10058486;29;20053;-80
2023/05/26 15:51:41;;;;;;;17.88;4.07;;;;;;;23.01;33.66;101660.31;10058378;29;20041;-80
2023/05/26 15:56:45;;;;;;;14.23;4.28;;;;;;;23.23;32.69;101649.63;10049466;29;20049;-79
2023/05/26 16:01:49;;;;;;;16.45;5.13;;;;;;;22.93;33.00;101649.38;10054398;29;20069;-79
2023/05/26 16:06:52;;;;;;;13.50;4.30;;;;;;;23.24;32.61;101643.16;10054962;29;20098;-78
2023/05/26 16:11:55;;;;;;;15.32;4.07;;;;;;;23.20;32.79;101642.63;10046893;29;20037;-78
2023/05/26 16:16:59;;;;;;;18.98;4.13;;;;;;;22.88;32.97;101641.69;10062037;29;20042;-78
2023/05/26 16:22:02;;;;;;;10.23;3.88;;;;;;;23.49;32.68;101644.72;10052778;29;20080;-78
2023/05/26 16:27:06;;;;;;;15.88;4.25;;;;;;;23.41;32.48;101653.00;10037543;29;20417;-78
2023/05/26 16:32:11;;;;;;;16.65;4.25;;;;;;;22.95;32.93;101645.41;10039885;29;20137;-78
2023/05/26 16:37:14;;;;;;;13.70;4.00;;;;;;;23.77;31.88;101644.25;10039974;29;20054;-78
2023/05/26 16:42:17;;;;;;;17.30;4.60;;;;;;;25.36;29.69;101640.53;10051075;29;20037;-79
2023/05/26 16:47:21;;;;;;;14.95;4.55;;;;;;;27.88;27.13;101638.06;10055158;29;20543;-79
2023/05/26 16:52:24;;;;;;;12.73;4.03;;;;;;;29.01;26.08;101640.81;10051315;29;20524;-79
2023/05/26 16:57:26;;;;;;;15.52;4.43;;;;;;;28.68;26.24;101644.50;10037740;29;20495;-79
2023/05/26 17:02:31;;;;;;;14.20;4.40;;;;;;;28.69;25.92;101641.53;10060524;29;20064;-79
2023/05/26 17:07:34;;;;;;;18.58;5.28;;;;;;;29.11;26.00;101650.41;10069540;29;20097;-80
2023/05/26 17:12:37;;;;;;;14.18;4.40;;;;;;;28.93;26.08;101648.31;10063051;29;20079;-79
2023/05/26 17:17:42;;;;;;;16.02;4.90;;;;;;;28.60;25.68;101648.34;10061410;29;20076;-79
2023/05/26 17:22:45;;;;;;;14.55;4.28;;;;;;;28.24;26.45;101649.59;10056521;29;20081;-79
2023/05/26 17:27:48;;;;;;;17.75;4.20;;;;;;;28.18;26.10;101652.34;10061862;29;20129;-78
2023/05/26 17:32:54;;;;;;;16.85;4.03;;;;;;;27.97;26.57;101661.66;10048336;29;20080;-79
2023/05/26 17:37:57;;;;;;;13.55;5.03;;;;;;;27.47;26.18;101661.91;10044189;29;20072;-78
2023/05/26 17:42:59;;;;;;;14.73;4.85;;;;;;;26.03;27.83;101662.28;10048563;29;20560;-80
2023/05/26 17:48:04;;;;;;;11.90;4.45;;;;;;;25.26;28.41;101671.09;10039943;29;20468;-79
2023/05/26 17:53:07;;;;;;;13.68;4.63;;;;;;;21.81;32.50;101670.09;10041831;29;20073;-79
2023/05/26 17:58:10;;;;;;;12.27;5.32;;;;;;;19.13;36.76;101677.53;10056961;29;20093;-79
2023/05/26 18:03:14;;;;;;;18.88;4.32;;;;;;;18.40;38.35;101692.69;10059597;29;20456;-77
2023/05/26 18:08:18;;;;;;;20.05;4.57;;;;;;;18.05;39.34;101680.53;10063056;29;20500;-79
2023/05/26 18:13:21;;;;;;;15.32;4.20;;;;;;;17.28;40.66;101684.78;10065715;29;20053;-79
2023/05/26 18:18:26;;;;;;;18.10;4.90;;;;;;;16.95;40.61;101677.69;10074128;29;20129;-80
2023/05/26 18:23:29;;;;;;;17.40;4.63;;;;;;;16.68;40.80;101683.72;10073699;29;20260;-78
2023/05/26 18:28:32;;;;;;;12.73;4.35;;;;;;;16.48;41.57;101691.72;10067215;29;20057;-79
2023/05/26 18:33:36;;;;;;;17.20;4.47;;;;;;;16.28;41.86;101698.81;10071421;29;20045;-77
2023/05/26 18:38:40;;;;;;;15.23;4.75;;;;;;;16.07;42.32;101698.75;10070411;29;20045;-78
2023/05/26 18:43:43;;;;;;;16.00;4.18;;;;;;;15.76;43.53;101704.97;10083315;29;20049;-78
2023/05/26 18:48:47;;;;;;;17.98;4.43;;;;;;;15.63;43.60;101694.28;10071453;29;20129;-80
2023/05/26 18:53:50;;;;;;;14.25;4.13;;;;;;;15.40;44.47;101693.47;10072806;29;20116;-78
2023/05/26 18:58:53;;;;;;;14.88;4.65;;;;;;;15.20;45.22;101697.75;10068385;29;20128;-80
2023/05/26 19:04:00;;;;;;;19.25;3.58;;;;;;;15.11;45.19;101706.59;10069803;29;20081;-80
2023/05/26 19:09:03;;;;;;;14.32;3.95;;;;;;;14.93;45.62;101700.81;10071952;29;20211;-79
2023/05/26 19:14:06;;;;;;;16.63;4.25;;;;;;;14.64;46.70;101708.47;10067122;29;20046;-79
2023/05/26 19:19:10;;;;;;;18.67;3.85;;;;;;;14.40;47.43;101700.41;10058743;29;20410;-77
2023/05/26 19:24:13;;;;;;;20.63;4.82;;;;;;;14.21;47.64;101707.19;10066088;29;20065;-79
2023/05/26 19:29:16;;;;;;;15.07;4.32;;;;;;;14.03;48.07;101714.84;10062592;29;20077;-80
2023/05/26 19:34:21;;;;;;;20.92;5.05;;;;;;;14.04;48.47;101713.00;10062667;29;20129;-81
2023/05/26 19:39:24;;;;;;;20.40;3.97;;;;;;;13.92;48.58;101714.78;10054870;29;20084;-81
2023/05/26 19:44:27;;;;;;;16.95;4.05;;;;;;;13.81;48.98;101720.13;10064904;29;20052;-78
2023/05/26 19:49:31;;;;;;;19.67;5.03;;;;;;;13.70;49.18;101726.31;10061901;29;20044;-77
2023/05/26 19:54:34;;;;;;;21.67;4.07;;;;;;;13.58;49.80;101725.38;10058474;29;20073;-79
2023/05/26 19:59:37;;;;;;;12.60;3.47;;;;;;;13.39;49.91;101727.69;10064980;29;20136;-80
2023/05/26 20:04:42;;;;;;;21.52;4.30;;;;;;;13.14;50.62;101720.44;10065798;29;20073;-77
2023/05/26 20:09:44;;;;;;;22.50;4.10;;;;;;;13.07;50.91;101730.78;10057976;29;20184;-81
2023/05/26 20:14:48;;;;;;;13.18;3.88;;;;;;;13.02;51.05;101731.09;10079179;29;20081;-78
2023/05/26 20:19:52;;;;;;;18.98;5.60;;;;;;;12.92;51.62;101729.19;10066049;29;20121;-79
2023/05/26 20:25:13;;;;;;;;;;;;;;;12.75;51.99;101720.41;10093643;29;20109;-79
2023/05/26 20:30:17;;;;;;;21.63;4.35;;;;;;;12.67;52.02;101727.28;10076886;29;19928;-79
2023/05/26 20:35:22;;;;;;;17.40;4.30;;;;;;;12.63;52.49;101723.09;10089456;29;20056;-80
2023/05/26 20:40:26;;;;;;;16.90;4.75;;;;;;;12.62;52.53;101730.31;10073018;29;20061;-78
2023/05/26 20:45:29;;;;;;;19.98;5.00;;;;;;;12.43;53.02;101728.00;10070458;29;20055;-77
2023/05/26 20:50:34;;;;;;;15.73;4.60;;;;;;;12.29;53.74;101738.88;10076925;29;20132;-81
2023/05/26 20:55:36;;;;;;;19.35;4.80;;;;;;;12.25;53.87;101743.53;10075600;29;20163;-81
2023/05/26 21:00:39;;;;;;;18.40;4.82;;;;;;;12.24;54.24;101736.44;10072874;29;20049;-79
2023/05/26 21:05:44;;;;;;;18.50;4.00;;;;;;;12.13;54.56;101738.97;10062864;29;20094;-79
2023/05/26 21:10:47;;;;;;;17.55;4.68;;;;;;;12.04;55.20;101743.16;10074576;29;20513;-81
2023/05/26 21:15:50;;;;;;;19.17;4.97;;;;;;;11.99;55.59;101742.59;10080115;29;20581;-79
2023/05/26 21:20:54;;;;;;;22.77;6.85;;;;;;;11.76;56.38;101740.50;10071825;29;20082;-80
2023/05/26 21:25:57;;;;;;;18.35;4.47;;;;;;;11.85;56.63;101734.53;10073031;29;20064;-79
2023/05/26 21:31:00;;;;;;;21.02;5.70;;;;;;;11.72;56.82;101738.03;10064672;29;20104;-79
2023/05/26 21:36:05;;;;;;;23.63;5.55;;;;;;;11.56;57.55;101736.41;10068687;29;20060;-80
2023/05/26 21:41:08;;;;;;;21.27;6.70;;;;;;;11.46;58.00;101728.94;10068739;29;20050;-79
2023/05/26 21:46:11;;;;;;;15.93;5.20;;;;;;;11.38;58.27;101725.88;10054206;29;20101;-78
2023/05/26 21:51:16;;;;;;;20.48;6.20;;;;;;;11.34;58.68;101734.22;10057806;29;20082;-80
2023/05/26 21:56:19;;;;;;;22.08;6.22;;;;;;;11.29;58.78;101721.03;10065977;29;20049;-78
2023/05/26 22:01:21;;;;;;;23.67;6.05;;;;;;;11.21;59.15;101718.84;10063866;29;20042;-80
2023/05/26 22:06:26;;;;;;;20.98;5.70;;;;;;;11.16;59.55;101725.47;10064413;29;20502;-78
2023/05/26 22:11:29;;;;;;;16.63;4.63;;;;;;;11.14;59.61;101736.34;10083107;29;20422;-80
2023/05/26 22:16:31;;;;;;;20.90;5.75;;;;;;;11.06;59.62;101736.78;10065893;29;20550;-81
2023/05/26 22:21:36;;;;;;;27.38;5.90;;;;;;;10.96;59.94;101735.59;10064149;29;20049;-81
2023/05/26 22:26:39;;;;;;;19.85;5.15;;;;;;;10.81;60.39;101744.63;10077450;29;20057;-78
2023/05/26 22:31:42;;;;;;;16.75;5.05;;;;;;;10.83;60.45;101743.56;10090012;29;20050;-75
2023/05/26 22:36:47;;;;;;;18.98;5.32;;;;;;;10.90;60.38;101732.44;10065050;29;20056;-81
2023/05/26 22:41:50;;;;;;;23.05;6.35;;;;;;;10.77;60.56;101741.22;10071225;29;20137;-81
2023/05/26 22:46:53;;;;;;;16.30;5.85;;;;;;;10.79;60.46;101735.78;10060364;29;20050;-80
2023/05/26 22:51:58;;;;;;;22.63;5.38;;;;;;;10.74;60.58;101741.41;10065869;29;20582;-81
2023/05/26 22:57:01;;;;;;;22.67;5.72;;;;;;;10.56;60.81;101745.22;10050598;29;20722;-81
2023/05/26 23:02:04;;;;;;;20.45;5.20;;;;;;;10.47;61.40;101743.06;10054993;29;20074;-80
2023/05/26 23:07:08;;;;;;;24.65;6.47;;;;;;;10.39;61.63;101739.03;10046398;29;20049;-80